Time;durP1;ratioP1;P1;durP2;ratioP2;P2;SDS_P1;SDS_P2;PMS_P1;PMS_P2;Temp;Humidity;BMP_temperature;BMP_pressure;BME280_temperature;BME280_humidity;BME280_pressure;Samples;Min_cycle;Max_cycle;Signal;HPM_P1;HPM_P2
2022/06/03 00:00:32;;;;;;;21.27;17.20;;;;;;;;;;5033370;28;20044;-79
2022/06/03 00:03:44;;;;;;;23.80;16.83;;;;;;;;;;5039736;28;20045;-82
2022/06/03 00:07:05;;;;;;;21.08;17.05;;;;;;;;;;5054870;28;20045;-80
2022/06/03 00:10:03;;;;;;;19.27;17.23;;;;;;;;;;5046484;28;20041;-80
2022/06/03 00:12:53;;;;;;;19.63;17.58;;;;;;;;;;5033090;28;20386;-80
2022/06/03 00:16:17;;;;;;;21.88;17.83;;;;;;;;;;5032856;28;20057;-80
2022/06/03 00:19:07;;;;;;;24.45;17.40;;;;;;;;;;5032641;28;20049;-80
2022/06/03 00:21:59;;;;;;;23.08;17.42;;;;;;;;;;5032612;28;20389;-80
2022/06/03 00:24:56;;;;;;;28.02;18.52;;;;;;;;;;5032219;28;20041;-80
2022/06/03 00:28:09;;;;;;;24.63;17.63;;;;;;;;;;5040002;28;20466;-79
2022/06/03 00:31:19;;;;;;;21.48;18.02;;;;;;;;;;5032208;28;20053;-79
2022/06/03 00:34:26;;;;;;;22.92;18.02;;;;;;;;;;5046135;28;20041;-79
2022/06/03 00:37:37;;;;;;;22.77;18.33;;;;;;;;;;5031993;28;20041;-79
2022/06/03 00:40:53;;;;;;;23.75;18.15;;;;;;;;;;5031259;28;20045;-79
2022/06/03 00:44:05;;;;;;;25.58;18.08;;;;;;;;;;5032231;28;20049;-79
2022/06/03 00:47:13;;;;;;;21.90;18.13;;;;;;;;;;5032255;28;20045;-79
2022/06/03 00:50:30;;;;;;;21.73;17.85;;;;;;;;;;5032773;28;20390;-79
2022/06/03 00:53:49;;;;;;;27.92;19.13;;;;;;;;;;5032420;28;20044;-80
2022/06/03 00:56:44;;;;;;;23.10;18.38;;;;;;;;;;5031893;28;20044;-79
2022/06/03 01:00:03;;;;;;;24.67;19.45;;;;;;;;;;5031720;28;20057;-80
2022/06/03 01:03:07;;;;;;;24.98;18.60;;;;;;;;;;5031687;28;20115;-80
2022/06/03 02:58:50;;;;;;;;;;;;;;;;;;;;;
2022/06/03 03:06:22;;;;;;;25.75;19.42;;;;;;;;;;5047121;28;20040;-80
2022/06/03 03:09:29;;;;;;;26.02;19.08;;;;;;;;;;5063054;28;20053;-80
2022/06/03 03:12:39;;;;;;;21.15;18.83;;;;;;;;;;5055935;28;20100;-80
2022/06/03 03:15:43;;;;;;;22.30;17.50;;;;;;;;;;5055884;28;20402;-80
2022/06/03 03:19:00;;;;;;;22.90;18.80;;;;;;;;;;5062322;28;20044;-81
2022/06/03 03:22:02;;;;;;;23.98;17.85;;;;;;;;;;5055674;28;20049;-81
2022/06/03 03:24:57;;;;;;;25.92;18.63;;;;;;;;;;5055824;28;20041;-81
2022/06/03 03:28:01;;;;;;;26.50;19.48;;;;;;;;;;5055827;28;20048;-81
2022/06/03 03:31:25;;;;;;;22.50;18.25;;;;;;;;;;5062488;28;20041;-81
2022/06/03 03:34:10;;;;;;;21.17;17.42;;;;;;;;;;5034932;28;20052;-81
2022/06/03 03:36:59;;;;;;;22.73;18.00;;;;;;;;;;5055660;28;20049;-81
2022/06/03 03:39:51;;;;;;;23.50;18.75;;;;;;;;;;5055409;28;20049;-79
2022/06/03 03:43:07;;;;;;;24.00;18.83;;;;;;;;;;5058614;28;20037;-80
2022/06/03 03:46:30;;;;;;;26.35;18.77;;;;;;;;;;5074152;28;20049;-81
2022/06/03 03:49:39;;;;;;;26.50;19.17;;;;;;;;;;5055528;28;20037;-80
2022/06/03 03:53:02;;;;;;;20.92;18.17;;;;;;;;;;5062481;28;20049;-81
2022/06/03 03:55:54;;;;;;;21.13;17.08;;;;;;;;;;5054773;28;20052;-81
2022/06/03 03:58:58;;;;;;;21.15;17.17;;;;;;;;;;5061384;28;20390;-81
2022/06/03 04:01:46;;;;;;;23.17;16.75;;;;;;;;;;5061490;28;20053;-81
2022/06/03 04:05:03;;;;;;;22.52;17.73;;;;;;;;;;5055276;28;20393;-81
2022/06/03 04:07:57;;;;;;;23.60;17.50;;;;;;;;;;5054900;28;20041;-81
2022/06/03 04:10:58;;;;;;;23.70;17.15;;;;;;;;;;5055174;28;20386;-80
2022/06/03 04:14:01;;;;;;;30.00;16.73;;;;;;;;;;5055223;28;20044;-80
2022/06/03 04:17:02;;;;;;;22.10;17.10;;;;;;;;;;5062192;28;20041;-79
2022/06/03 04:20:24;;;;;;;24.45;15.88;;;;;;;;;;5054931;28;20406;-79
2022/06/03 04:23:28;;;;;;;25.95;16.25;;;;;;;;;;5061259;28;20498;-78
2022/06/03 04:26:28;;;;;;;20.63;16.50;;;;;;;;;;5061731;28;20037;-79
2022/06/03 04:29:35;;;;;;;27.02;17.02;;;;;;;;;;5061214;28;20041;-79
2022/06/03 04:32:42;;;;;;;20.92;16.20;;;;;;;;;;5061091;28;20040;-79
2022/06/03 04:35:59;;;;;;;27.23;15.13;;;;;;;;;;5054296;28;20045;-79
2022/06/03 04:39:03;;;;;;;20.67;15.38;;;;;;;;;;5031993;28;20045;-79
2022/06/03 04:42:19;;;;;;;17.77;14.43;;;;;;;;;;5031359;28;20048;-81
2022/06/03 04:45:23;;;;;;;17.30;13.73;;;;;;;;;;5032204;28;20386;-79
2022/06/03 04:48:31;;;;;;;18.52;13.93;;;;;;;;;;5031321;28;20053;-78
2022/06/03 04:51:38;;;;;;;15.73;13.70;;;;;;;;;;5031697;28;20049;-78
2022/06/03 04:55:07;;;;;;;18.80;13.38;;;;;;;;;;5032196;28;20061;-79
2022/06/03 04:58:17;;;;;;;22.30;13.73;;;;;;;;;;5031069;28;20048;-78
2022/06/03 05:01:21;;;;;;;17.70;12.82;;;;;;;;;;5031907;28;20053;-78
2022/06/03 05:04:15;;;;;;;21.63;12.60;;;;;;;;;;5031317;28;20056;-78
2022/06/03 05:07:20;;;;;;;;;;;;;;;;;;5039262;28;20049;-77
2022/06/03 05:10:42;;;;;;;16.90;11.48;;;;;;;;;;5053881;28;19913;-78
2022/06/03 05:13:50;;;;;;;21.90;12.50;;;;;;;;;;5060432;28;20052;-79
2022/06/03 05:17:11;;;;;;;16.10;11.90;;;;;;;;;;5053776;28;20045;-79
2022/06/03 05:20:26;;;;;;;18.65;12.80;;;;;;;;;;5012118;28;20050;-79
2022/06/03 05:23:58;;;;;;;18.50;13.10;;;;;;;;;;5060258;28;20056;-79
2022/06/03 05:27:17;;;;;;;19.15;14.38;;;;;;;;;;5054137;28;20049;-78
2022/06/03 05:30:26;;;;;;;19.27;14.20;;;;;;;;;;5060632;28;20048;-81
2022/06/03 05:33:52;;;;;;;21.88;13.70;;;;;;;;;;5060119;28;20045;-80
2022/06/03 05:37:11;;;;;;;23.05;13.43;;;;;;;;;;5059999;28;20049;-80
2022/06/03 05:40:15;;;;;;;19.83;13.00;;;;;;;;;;5052112;28;20049;-80
2022/06/03 05:43:32;;;;;;;16.70;12.48;;;;;;;;;;5051304;28;20049;-80
2022/06/03 05:46:30;;;;;;;14.88;12.05;;;;;;;;;;5059918;28;20493;-80
2022/06/03 05:49:31;;;;;;;19.92;12.55;;;;;;;;;;5059917;28;20056;-80
2022/06/03 05:52:47;;;;;;;18.35;12.32;;;;;;;;;;5038696;28;20040;-80
2022/06/03 05:56:10;;;;;;;17.25;12.68;;;;;;;;;;5059397;28;20037;-80
2022/06/03 05:59:33;;;;;;;18.48;12.27;;;;;;;;;;5069918;28;20041;-79
2022/06/03 06:02:34;;;;;;;19.42;13.85;;;;;;;;;;5043993;28;20045;-80
2022/06/03 06:05:44;;;;;;;19.05;13.07;;;;;;;;;;5031244;28;20037;-79
2022/06/03 06:09:05;;;;;;;16.13;13.05;;;;;;;;;;5036645;28;20033;-79
2022/06/03 06:12:13;;;;;;;19.55;12.65;;;;;;;;;;5046015;28;20401;-79
2022/06/03 06:15:02;;;;;;;16.75;13.05;;;;;;;;;;5046849;28;20045;-79
2022/06/03 06:17:53;;;;;;;19.38;12.85;;;;;;;;;;5039506;28;20045;-79
2022/06/03 06:20:58;;;;;;;16.85;11.10;;;;;;;;;;5047571;28;20049;-79
2022/06/03 06:23:48;;;;;;;16.33;11.60;;;;;;;;;;5054731;28;20394;-80
2022/06/03 06:26:45;;;;;;;21.27;11.98;;;;;;;;;;5039843;28;20040;-80
2022/06/03 06:29:50;;;;;;;18.95;11.32;;;;;;;;;;5035017;28;20048;-80
2022/06/03 06:32:56;;;;;;;22.67;13.30;;;;;;;;;;5036934;28;20402;-79
2022/06/03 06:36:07;;;;;;;18.50;13.35;;;;;;;;;;5040505;28;20057;-79
2022/06/03 06:39:11;;;;;;;18.50;12.30;;;;;;;;;;5040886;28;20041;-79
2022/06/03 06:42:03;;;;;;;19.42;12.75;;;;;;;;;;5042500;28;20041;-81
2022/06/03 06:45:20;;;;;;;19.88;13.02;;;;;;;;;;5040649;28;20041;-80
2022/06/03 07:41:56;;;;;;;16.52;11.00;;;;;;;;;;5032831;28;19917;-79
2022/06/03 07:45:09;;;;;;;15.18;10.18;;;;;;;;;;5038906;28;20037;-79
2022/06/03 07:47:58;;;;;;;13.93;10.00;;;;;;;;;;5045717;28;20045;-79
2022/06/03 07:50:52;;;;;;;15.20;10.80;;;;;;;;;;5038706;28;20046;-79
2022/06/03 07:54:01;;;;;;;16.50;10.27;;;;;;;;;;5038354;28;20083;-80
2022/06/03 07:56:47;;;;;;;13.75;9.85;;;;;;;;;;5038543;28;20037;-78
2022/06/03 07:59:35;;;;;;;20.67;10.63;;;;;;;;;;5038634;28;20049;-75
2022/06/03 08:02:22;;;;;;;17.73;10.02;;;;;;;;;;5046724;28;20040;-77
2022/06/03 08:05:10;;;;;;;16.30;10.13;;;;;;;;;;5036097;28;20486;-83
2022/06/03 08:11:09;;;;;;;12.05;8.90;;;;;;;;;;5042316;28;20041;-81
2022/06/03 08:13:57;;;;;;;17.60;9.75;;;;;;;;;;5046894;28;20506;-80
2022/06/03 08:16:43;;;;;;;19.00;10.55;;;;;;;;;;5056773;28;20046;-81
2022/06/03 08:19:32;;;;;;;13.38;9.27;;;;;;;;;;5047417;28;20045;-82
2022/06/03 08:22:22;;;;;;;14.27;9.40;;;;;;;;;;5046454;28;20037;-80
2022/06/03 08:25:08;;;;;;;13.70;8.93;;;;;;;;;;5044065;28;20050;-81
2022/06/03 08:27:57;;;;;;;14.63;9.23;;;;;;;;;;5050021;28;20041;-77
2022/06/03 08:30:47;;;;;;;18.88;9.50;;;;;;;;;;5043800;28;20053;-79
2022/06/03 08:33:52;;;;;;;13.15;9.60;;;;;;;;;;5043999;28;20045;-80
2022/06/03 08:36:41;;;;;;;18.67;9.80;;;;;;;;;;5057285;28;20049;-77
2022/06/03 08:39:31;;;;;;;10.50;8.77;;;;;;;;;;5053920;28;20795;-79
2022/06/03 08:42:46;;;;;;;18.52;10.35;;;;;;;;;;5062769;28;20037;-78
2022/06/03 08:45:53;;;;;;;15.60;10.13;;;;;;;;;;5068183;28;20040;-80
2022/06/03 08:48:45;;;;;;;16.85;9.43;;;;;;;;;;5074050;28;20057;-75
2022/06/03 08:51:45;;;;;;;17.00;10.35;;;;;;;;;;5064775;28;20494;-80
2022/06/03 08:54:51;;;;;;;14.30;9.40;;;;;;;;;;5062595;28;20494;-78
2022/06/03 08:57:44;;;;;;;14.50;10.02;;;;;;;;;;5042813;28;20049;-79
2022/06/03 09:00:50;;;;;;;12.90;9.97;;;;;;;;;;5027865;28;20057;-79
2022/06/03 09:03:59;;;;;;;12.50;9.05;;;;;;;;;;5047501;28;20045;-78
2022/06/03 09:06:54;;;;;;;12.75;8.82;;;;;;;;;;5052540;28;20045;-78
2022/06/03 09:10:07;;;;;;;16.90;9.65;;;;;;;;;;5043705;28;20049;-79
2022/06/03 09:12:57;;;;;;;13.02;9.20;;;;;;;;;;5033423;28;20038;-79
2022/06/03 09:15:46;;;;;;;14.63;8.38;;;;;;;;;;5038652;28;20506;-78
2022/06/03 09:18:39;;;;;;;13.52;9.10;;;;;;;;;;5034225;28;20391;-78
2022/06/03 09:21:32;;;;;;;14.23;8.93;;;;;;;;;;5033859;28;20046;-79
2022/06/03 09:24:31;;;;;;;11.40;9.90;;;;;;;;;;5033739;28;20046;-78
2022/06/03 09:27:17;;;;;;;14.68;9.48;;;;;;;;;;5040894;28;20049;-78
2022/06/03 09:30:08;;;;;;;13.15;9.75;;;;;;;;;;5033394;28;20403;-79
2022/06/03 09:32:56;;;;;;;14.15;9.02;;;;;;;;;;5040559;28;20042;-79
2022/06/03 09:35:45;;;;;;;11.77;8.85;;;;;;;;;;5038906;28;20049;-77
2022/06/03 09:38:47;;;;;;;11.18;8.57;;;;;;;;;;5033889;28;20045;-78
2022/06/03 09:41:41;;;;;;;15.23;8.85;;;;;;;;;;5035071;28;20038;-78
2022/06/03 09:44:28;;;;;;;10.67;8.10;;;;;;;;;;5037398;28;20041;-78
2022/06/03 09:47:18;;;;;;;14.52;8.60;;;;;;;;;;5044636;28;20275;-80
2022/06/03 09:50:03;;;;;;;15.27;9.77;;;;;;;;;;5037527;28;20045;-80
2022/06/03 09:53:00;;;;;;;13.98;9.07;;;;;;;;;;5044510;28;20482;-79
2022/06/03 09:55:55;;;;;;;12.82;8.95;;;;;;;;;;5038321;28;20038;-80
2022/06/03 09:58:41;;;;;;;13.63;9.25;;;;;;;;;;5043657;28;20041;-80
2022/06/03 10:01:27;;;;;;;11.93;9.10;;;;;;;;;;5044866;28;20045;-80
2022/06/03 10:04:13;;;;;;;16.35;9.30;;;;;;;;;;5044316;28;20046;-79
2022/06/03 10:07:00;;;;;;;13.10;8.50;;;;;;;;;;5029829;28;20038;-85
2022/06/03 10:12:49;;;;;;;16.10;8.60;;;;;;;;;;5042453;28;20045;-85
2022/06/03 10:15:47;;;;;;;15.20;9.20;;;;;;;;;;5037014;28;20046;-86
2022/06/03 10:18:49;;;;;;;14.63;9.57;;;;;;;;;;5036910;28;20045;-85
2022/06/03 10:21:34;;;;;;;15.07;9.80;;;;;;;;;;5037991;28;20495;-85
2022/06/03 10:24:30;;;;;;;13.65;9.68;;;;;;;;;;5037649;28;20045;-84
2022/06/03 10:27:21;;;;;;;13.00;9.80;;;;;;;;;;5048954;28;20033;-81
2022/06/03 10:30:08;;;;;;;15.70;9.82;;;;;;;;;;5040929;28;20482;-82
2022/06/03 10:32:53;;;;;;;13.73;10.40;;;;;;;;;;5043199;28;20116;-83
2022/06/03 10:35:40;;;;;;;16.42;10.13;;;;;;;;;;5013314;28;20045;-83
2022/06/03 10:38:29;;;;;;;17.50;9.88;;;;;;;;;;5028728;28;20046;-82
2022/06/03 10:41:15;;;;;;;16.58;9.75;;;;;;;;;;5035086;28;20050;-83
2022/06/03 10:44:28;;;;;;;10.65;9.52;;;;;;;;;;5043498;28;20045;-81
2022/06/03 10:47:44;;;;;;;12.27;9.13;;;;;;;;;;5043194;28;20037;-83
2022/06/03 10:50:38;;;;;;;13.97;9.80;;;;;;;;;;5030192;28;20395;-83
2022/06/03 11:02:47;;;;;;;9.82;8.82;;;;;;;;;;5035327;28;20042;-82
2022/06/03 11:05:39;;;;;;;15.25;9.02;;;;;;;;;;5028135;28;20045;-82
2022/06/03 11:08:27;;;;;;;10.80;8.57;;;;;;;;;;5026886;28;20041;-82
2022/06/03 11:11:13;;;;;;;10.43;8.40;;;;;;;;;;5042458;28;20042;-83
2022/06/03 11:14:26;;;;;;;15.73;9.07;;;;;;;;;;5036590;28;20045;-82
2022/06/03 11:17:18;;;;;;;11.48;9.07;;;;;;;;;;5042360;28;20045;-83
2022/06/03 11:20:36;;;;;;;13.20;8.73;;;;;;;;;;5036343;28;20045;-83
2022/06/03 11:23:22;;;;;;;11.52;9.38;;;;;;;;;;5035348;28;20049;-86
2022/06/03 11:26:08;;;;;;;12.60;8.63;;;;;;;;;;5043100;28;20037;-83
2022/06/03 11:29:00;;;;;;;13.65;9.70;;;;;;;;;;5042178;28;20499;-86
2022/06/03 11:31:47;;;;;;;14.43;9.70;;;;;;;;;;5027648;28;20053;-79
2022/06/03 11:34:39;;;;;;;16.73;9.70;;;;;;;;;;5042910;28;20041;-81
2022/06/03 11:37:44;;;;;;;11.57;8.25;;;;;;;;;;5035649;28;20410;-80
2022/06/03 11:40:43;;;;;;;12.00;7.95;;;;;;;;;;5037681;28;20050;-79
2022/06/03 11:43:35;;;;;;;10.68;7.75;;;;;;;;;;5042309;28;20054;-81
2022/06/03 11:46:32;;;;;;;14.02;8.05;;;;;;;;;;5042497;28;20057;-81
2022/06/03 11:49:21;;;;;;;11.05;8.20;;;;;;;;;;5042963;28;20042;-81
2022/06/03 11:52:33;;;;;;;9.10;7.38;;;;;;;;;;5042206;28;20049;-86
2022/06/03 11:55:38;;;;;;;12.80;7.88;;;;;;;;;;5028451;28;20403;-88
2022/06/03 11:58:42;;;;;;;11.75;7.63;;;;;;;;;;5035877;28;20037;-78
2022/06/03 12:01:56;;;;;;;;;;;;;;;;;;5041714;28;20041;-80
2022/06/03 12:04:54;;;;;;;12.43;8.77;;;;;;;;;;5040661;28;19921;-80
2022/06/03 12:07:55;;;;;;;10.25;8.65;;;;;;;;;;5041734;28;20053;-81
2022/06/03 12:11:01;;;;;;;11.00;8.57;;;;;;;;;;5027357;28;20406;-80
2022/06/03 12:14:13;;;;;;;13.25;8.77;;;;;;;;;;5041681;28;20351;-80
2022/06/03 12:17:22;;;;;;;14.60;8.38;;;;;;;;;;5041752;28;20050;-79
2022/06/03 12:20:30;;;;;;;11.50;9.68;;;;;;;;;;5035137;28;20409;-79
2022/06/03 12:23:15;;;;;;;13.10;9.02;;;;;;;;;;5033367;28;20041;-80
2022/06/03 12:26:05;;;;;;;11.38;9.05;;;;;;;;;;5034380;28;20390;-80
2022/06/03 12:28:54;;;;;;;13.63;9.30;;;;;;;;;;5034467;28;20054;-80
2022/06/03 12:31:45;;;;;;;10.00;9.00;;;;;;;;;;5041231;28;20042;-80
2022/06/03 12:34:31;;;;;;;12.77;8.35;;;;;;;;;;5035453;28;20042;-80
2022/06/03 12:37:29;;;;;;;15.55;8.88;;;;;;;;;;5034230;28;20045;-80
2022/06/03 12:40:25;;;;;;;14.60;8.38;;;;;;;;;;5034343;28;20499;-80
2022/06/03 12:43:46;;;;;;;12.38;9.40;;;;;;;;;;5047956;28;20034;-79
2022/06/03 12:46:37;;;;;;;19.80;10.50;;;;;;;;;;5003633;28;20053;-80
2022/06/03 12:49:31;;;;;;;14.73;10.48;;;;;;;;;;5034486;28;20486;-80
2022/06/03 12:52:16;;;;;;;;;;;;;;;;;;5034637;28;20037;-81
2022/06/03 12:55:14;;;;;;;12.63;9.77;;;;;;;;;;5041717;28;19921;-81
2022/06/03 12:58:34;;;;;;;9.82;8.82;;;;;;;;;;5034996;28;20041;-80
2022/06/03 13:01:44;;;;;;;9.88;8.85;;;;;;;;;;5041516;28;20041;-78
2022/06/03 13:04:52;;;;;;;11.73;9.48;;;;;;;;;;5041086;28;20049;-80
2022/06/03 13:07:57;;;;;;;12.13;9.93;;;;;;;;;;5034938;28;20041;-79
2022/06/03 13:11:04;;;;;;;12.10;9.80;;;;;;;;;;5034089;28;20042;-83
2022/06/03 13:13:58;;;;;;;12.73;9.73;;;;;;;;;;5034624;28;20045;-84
2022/06/03 13:16:47;;;;;;;19.02;9.32;;;;;;;;;;5040433;28;20038;-84
2022/06/03 13:19:32;;;;;;;12.90;8.73;;;;;;;;;;5033993;28;20042;-83
2022/06/03 13:22:20;;;;;;;11.52;8.48;;;;;;;;;;5034445;28;20038;-84
2022/06/03 13:25:15;;;;;;;10.75;8.50;;;;;;;;;;5034416;28;20049;-84
2022/06/03 13:28:36;;;;;;;11.35;8.00;;;;;;;;;;5034343;28;20487;-84
2022/06/03 13:31:30;;;;;;;11.60;6.32;;;;;;;;;;5019598;28;20042;-82
2022/06/03 13:34:26;;;;;;;10.73;8.38;;;;;;;;;;5040640;28;20049;-79
2022/06/03 13:37:30;;;;;;;10.20;5.65;;;;;;;;;;5033674;28;20157;-79
2022/06/03 13:40:21;;;;;;;7.63;5.47;;;;;;;;;;5039876;28;20046;-79
2022/06/03 13:43:09;;;;;;;7.70;6.05;;;;;;;;;;5040474;28;20038;-79
2022/06/03 13:45:56;;;;;;;9.18;6.20;;;;;;;;;;5033788;28;20045;-79
2022/06/03 13:48:42;;;;;;;7.10;6.30;;;;;;;;;;5033424;28;20414;-78
2022/06/03 13:51:49;;;;;;;7.25;5.97;;;;;;;;;;5033160;28;20049;-79
2022/06/03 13:54:41;;;;;;;6.55;5.10;;;;;;;;;;5033173;28;20045;-78
2022/06/03 13:57:27;;;;;;;6.88;5.57;;;;;;;;;;5040345;28;20037;-78
2022/06/03 14:00:13;;;;;;;6.78;5.78;;;;;;;;;;5039956;28;20049;-77
2022/06/03 14:03:02;;;;;;;8.60;4.50;;;;;;;;;;5039943;28;20045;-77
2022/06/03 14:06:14;;;;;;;5.88;4.47;;;;;;;;;;5039907;28;20037;-79
2022/06/03 14:09:27;;;;;;;7.78;3.80;;;;;;;;;;5033529;28;20049;-80
2022/06/03 14:12:21;;;;;;;6.38;3.88;;;;;;;;;;5033681;28;20037;-81
2022/06/03 14:15:15;;;;;;;5.95;3.65;;;;;;;;;;5033359;28;20042;-78
2022/06/03 14:18:00;;;;;;;7.05;3.50;;;;;;;;;;5034246;28;20042;-77
2022/06/03 14:20:52;;;;;;;6.38;3.00;;;;;;;;;;5032743;28;20483;-80
2022/06/03 14:23:41;;;;;;;4.95;3.67;;;;;;;;;;5032862;28;20399;-78
2022/06/03 14:26:34;;;;;;;4.03;3.50;;;;;;;;;;5032907;28;20046;-79
2022/06/03 14:29:24;;;;;;;4.00;3.30;;;;;;;;;;5042791;28;20049;-79
2022/06/03 14:32:18;;;;;;;4.85;3.28;;;;;;;;;;5037652;28;20376;-80
2022/06/03 14:35:24;;;;;;;5.10;3.72;;;;;;;;;;5043295;28;20406;-80
2022/06/03 14:38:31;;;;;;;5.85;3.47;;;;;;;;;;5036813;28;20042;-80
2022/06/03 14:41:28;;;;;;;5.30;3.08;;;;;;;;;;5043577;28;20037;-85
2022/06/03 14:44:18;;;;;;;4.95;2.58;;;;;;;;;;5037102;28;20033;-85
2022/06/03 14:47:09;;;;;;;3.58;3.00;;;;;;;;;;5036907;28;20407;-84
2022/06/03 14:49:58;;;;;;;4.80;2.40;;;;;;;;;;5039021;28;20391;-85
2022/06/03 14:52:49;;;;;;;3.00;2.50;;;;;;;;;;5039974;28;20383;-84
2022/06/03 14:55:39;;;;;;;5.85;2.58;;;;;;;;;;5038153;28;20042;-83
2022/06/03 14:58:37;;;;;;;3.55;2.80;;;;;;;;;;5037372;28;20487;-78
2022/06/03 15:01:23;;;;;;;3.65;2.90;;;;;;;;;;5043112;28;20058;-77
2022/06/03 15:04:15;;;;;;;3.08;2.60;;;;;;;;;;5036497;28;20395;-79
2022/06/03 15:07:04;;;;;;;3.00;2.30;;;;;;;;;;5036776;28;20053;-78
2022/06/03 15:09:53;;;;;;;3.78;1.95;;;;;;;;;;5043062;28;20422;-78
2022/06/03 15:12:50;;;;;;;6.30;3.03;;;;;;;;;;5036016;28;20041;-77
2022/06/03 15:15:36;;;;;;;3.33;1.88;;;;;;;;;;5042142;28;20053;-77
2022/06/03 15:18:25;;;;;;;4.00;1.80;;;;;;;;;;5030534;28;20045;-77
2022/06/03 15:21:23;;;;;;;9.82;2.00;;;;;;;;;;5035877;28;20418;-78
2022/06/03 15:24:10;;;;;;;3.03;1.98;;;;;;;;;;5041734;28;20089;-77
2022/06/03 15:26:58;;;;;;;3.58;2.00;;;;;;;;;;5035788;28;20045;-78
2022/06/03 15:29:45;;;;;;;3.33;1.83;;;;;;;;;;5035693;28;20049;-77
2022/06/03 15:32:36;;;;;;;6.97;1.90;;;;;;;;;;5036283;28;20045;-77
2022/06/03 15:35:27;;;;;;;5.70;2.05;;;;;;;;;;5035211;28;20053;-78
2022/06/03 15:38:21;;;;;;;3.58;1.80;;;;;;;;;;5035671;28;20046;-78
2022/06/03 15:41:10;;;;;;;6.72;2.13;;;;;;;;;;5041409;28;20394;-78
2022/06/03 15:43:58;;;;;;;2.53;1.98;;;;;;;;;;5040394;28;20037;-78
2022/06/03 15:47:12;;;;;;;4.32;2.17;;;;;;;;;;5041918;28;20041;-77
2022/06/03 15:50:17;;;;;;;;;;;;;;;;;;5028567;28;20045;-78
2022/06/03 15:53:04;;;;;;;3.83;1.70;;;;;;;;;;5035216;28;19921;-78
2022/06/03 15:56:13;;;;;;;1.85;1.58;;;;;;;;;;5041834;28;20045;-79
2022/06/03 15:59:22;;;;;;;5.25;1.77;;;;;;;;;;5034343;28;20058;-79
2022/06/03 16:02:23;;;;;;;2.65;1.77;;;;;;;;;;5041942;28;20042;-79
2022/06/03 16:05:14;;;;;;;7.32;1.90;;;;;;;;;;5034991;28;20045;-79
2022/06/03 16:08:06;;;;;;;3.60;1.80;;;;;;;;;;5035142;28;20045;-78
2022/06/03 16:10:54;;;;;;;3.63;2.10;;;;;;;;;;5035472;28;20471;-79
2022/06/03 16:14:08;;;;;;;5.43;1.98;;;;;;;;;;5041670;28;20041;-79
2022/06/03 16:16:55;;;;;;;4.53;2.15;;;;;;;;;;5041850;28;20053;-78
2022/06/03 16:19:48;;;;;;;3.45;1.85;;;;;;;;;;5034555;28;20506;-78
2022/06/03 16:22:57;;;;;;;4.03;1.95;;;;;;;;;;5034801;28;20037;-79
2022/06/03 16:25:58;;;;;;;8.98;2.40;;;;;;;;;;5034654;28;20394;-79
2022/06/03 16:29:12;;;;;;;5.07;3.03;;;;;;;;;;5040793;28;20053;-79
2022/06/03 16:32:43;;;;;;;6.72;3.45;;;;;;;;;;5040863;28;20053;-79
2022/06/03 16:35:35;;;;;;;4.63;3.00;;;;;;;;;;5025233;28;20049;-78
2022/06/03 16:38:34;;;;;;;6.35;3.53;;;;;;;;;;5041147;28;20037;-78
2022/06/03 16:41:32;;;;;;;6.10;3.20;;;;;;;;;;5034217;28;20494;-77
2022/06/03 16:44:53;;;;;;;3.38;2.63;;;;;;;;;;5040846;28;20053;-77
2022/06/03 16:47:49;;;;;;;6.55;4.05;;;;;;;;;;4953882;29;20047;-77
2022/06/03 16:50:41;;;;;;;7.28;3.95;;;;;;;;;;5040640;28;20049;-76
2022/06/03 16:53:30;;;;;;;7.93;3.33;;;;;;;;;;5034069;28;20038;-77
2022/06/03 16:56:23;;;;;;;7.82;3.88;;;;;;;;;;5040757;28;20041;-78
2022/06/03 16:59:18;;;;;;;7.32;4.20;;;;;;;;;;5051131;28;20041;-78
2022/06/03 17:02:04;;;;;;;7.32;4.00;;;;;;;;;;5055159;28;20049;-79
2022/06/03 17:04:55;;;;;;;5.35;3.00;;;;;;;;;;5052008;28;20046;-79
2022/06/03 17:07:46;;;;;;;5.07;2.72;;;;;;;;;;5045337;28;20038;-80
2022/06/03 17:10:33;;;;;;;8.48;2.70;;;;;;;;;;5053617;28;20053;-79
2022/06/03 17:13:20;;;;;;;8.32;3.10;;;;;;;;;;5039512;28;20045;-81
2022/06/03 17:16:05;;;;;;;8.75;5.28;;;;;;;;;;5056859;28;20045;-80
2022/06/03 17:18:50;;;;;;;5.35;4.10;;;;;;;;;;5058775;28;20045;-78
2022/06/03 17:21:58;;;;;;;7.90;3.50;;;;;;;;;;5059207;28;20046;-78
2022/06/03 17:25:21;;;;;;;7.45;3.78;;;;;;;;;;5048380;28;20045;-79
2022/06/03 17:28:38;;;;;;;8.57;5.93;;;;;;;;;;5048534;28;20041;-79
2022/06/03 17:31:37;;;;;;;11.85;6.80;;;;;;;;;;5042579;28;20054;-81
2022/06/03 17:34:41;;;;;;;13.30;6.97;;;;;;;;;;5031614;28;20037;-81
2022/06/03 17:37:45;;;;;;;15.75;7.28;;;;;;;;;;5033375;28;20053;-81
2022/06/03 17:40:45;;;;;;;9.77;5.73;;;;;;;;;;5040703;28;20050;-81
2022/06/03 17:43:40;;;;;;;7.65;3.58;;;;;;;;;;5040196;28;20399;-82
2022/06/03 17:46:30;;;;;;;8.30;3.50;;;;;;;;;;5033846;28;20045;-82
2022/06/03 17:49:27;;;;;;;7.95;3.55;;;;;;;;;;5033330;28;20049;-81
2022/06/03 17:56:02;;;;;;;10.07;3.75;;;;;;;;;;5039812;28;20061;-81
2022/06/03 17:59:12;;;;;;;9.57;3.90;;;;;;;;;;5042841;28;20053;-80
2022/06/03 18:02:25;;;;;;;13.30;3.72;;;;;;;;;;5038729;28;20418;-80
2022/06/03 18:05:30;;;;;;;12.32;4.50;;;;;;;;;;5049787;28;20053;-80
2022/06/03 18:08:27;;;;;;;15.10;4.78;;;;;;;;;;5042471;28;20029;-81
2022/06/03 18:11:16;;;;;;;11.98;5.30;;;;;;;;;;5050418;28;20394;-79
2022/06/03 18:14:08;;;;;;;23.92;5.85;;;;;;;;;;5040417;28;20050;-81
2022/06/03 18:17:01;;;;;;;13.25;5.43;;;;;;;;;;5039079;28;20053;-78
2022/06/03 18:19:47;;;;;;;21.10;6.23;;;;;;;;;;5043103;28;20045;-78
2022/06/03 18:22:58;;;;;;;16.77;5.50;;;;;;;;;;5036797;28;20041;-78
2022/06/03 18:26:12;;;;;;;15.88;4.82;;;;;;;;;;5036486;28;20057;-78
2022/06/03 18:29:23;;;;;;;13.25;4.13;;;;;;;;;;5043265;28;20061;-78
2022/06/03 18:32:19;;;;;;;12.90;4.07;;;;;;;;;;5043459;28;20041;-78
2022/06/03 18:35:43;;;;;;;12.43;4.40;;;;;;;;;;5042999;28;20045;-78
2022/06/03 18:38:31;;;;;;;18.50;5.22;;;;;;;;;;5036385;28;20049;-78
2022/06/03 18:41:23;;;;;;;10.25;4.80;;;;;;;;;;5042969;28;20045;-78
2022/06/03 18:44:33;;;;;;;7.30;4.53;;;;;;;;;;5044017;28;20053;-80
2022/06/03 18:47:53;;;;;;;31.60;5.20;;;;;;;;;;5038313;28;20046;-78
2022/06/03 18:50:54;;;;;;;17.77;5.30;;;;;;;;;;5044006;28;20049;-77
2022/06/03 18:54:10;;;;;;;13.70;4.80;;;;;;;;;;5043446;28;20038;-79
2022/06/03 18:57:07;;;;;;;11.95;4.55;;;;;;;;;;5033268;28;20050;-79
2022/06/03 19:00:17;;;;;;;13.35;4.70;;;;;;;;;;5035582;28;20045;-79
2022/06/03 19:03:51;;;;;;;12.05;4.88;;;;;;;;;;5036632;28;20038;-79
2022/06/03 19:07:01;;;;;;;17.50;8.70;;;;;;;;;;4974939;28;20033;-78
2022/06/03 19:10:05;;;;;;;20.55;9.20;;;;;;;;;;5041180;28;20045;-79
2022/06/03 19:13:06;;;;;;;6.93;3.78;;;;;;;;;;5035493;28;20046;-79
2022/06/03 19:16:15;;;;;;;13.20;4.55;;;;;;;;;;5035159;28;20045;-79
2022/06/03 19:19:19;;;;;;;7.85;3.60;;;;;;;;;;5042731;28;20487;-79
2022/06/03 19:22:16;;;;;;;3.58;3.17;;;;;;;;;;5034905;28;20041;-80
2022/06/03 19:25:24;;;;;;;6.00;3.60;;;;;;;;;;5036287;28;20041;-78
2022/06/03 19:28:30;;;;;;;6.28;3.38;;;;;;;;;;5035333;28;20037;-80
2022/06/03 19:31:19;;;;;;;5.28;3.22;;;;;;;;;;5035359;28;20057;-79
2022/06/03 19:34:17;;;;;;;5.65;3.45;;;;;;;;;;5034951;28;20050;-79
2022/06/03 19:37:36;;;;;;;10.18;4.70;;;;;;;;;;5033973;28;20038;-79
2022/06/03 19:40:33;;;;;;;12.93;4.60;;;;;;;;;;5034541;28;20071;-80
2022/06/03 19:43:41;;;;;;;8.77;4.55;;;;;;;;;;5034974;28;20041;-79
2022/06/03 19:46:47;;;;;;;9.15;4.25;;;;;;;;;;5035441;28;20053;-80
2022/06/03 19:50:03;;;;;;;11.75;5.00;;;;;;;;;;5026863;28;20483;-79
2022/06/03 19:52:49;;;;;;;7.28;4.85;;;;;;;;;;5035052;28;20049;-81
2022/06/03 19:56:04;;;;;;;10.57;4.82;;;;;;;;;;5035269;28;20184;-80
2022/06/03 19:59:06;;;;;;;18.40;4.65;;;;;;;;;;5035059;28;20050;-79
2022/06/03 20:02:04;;;;;;;8.35;4.80;;;;;;;;;;5035038;28;20045;-82
2022/06/03 20:05:12;;;;;;;10.07;4.20;;;;;;;;;;5027000;28;20049;-81
2022/06/03 20:14:38;;;;;;;4.90;3.20;;;;;;;;;;5042022;28;20037;-82
2022/06/03 20:17:33;;;;;;;8.07;3.70;;;;;;;;;;5041409;28;20049;-82
2022/06/03 20:20:30;;;;;;;6.53;3.38;;;;;;;;;;5034338;28;20053;-82
2022/06/03 20:23:50;;;;;;;4.75;3.45;;;;;;;;;;5040969;28;20407;-82
2022/06/03 20:27:10;;;;;;;4.63;3.15;;;;;;;;;;5041047;28;20148;-81
2022/06/03 20:30:31;;;;;;;3.40;3.10;;;;;;;;;;5026831;28;20387;-82
2022/06/03 20:33:41;;;;;;;5.47;3.22;;;;;;;;;;5019884;28;20045;-83
2022/06/03 20:36:59;;;;;;;7.80;4.00;;;;;;;;;;5022736;28;20053;-81
2022/06/03 20:40:02;;;;;;;5.38;3.47;;;;;;;;;;5040373;28;20049;-83
2022/06/03 20:43:07;;;;;;;4.03;3.28;;;;;;;;;;5040827;28;20057;-81
2022/06/03 20:46:00;;;;;;;7.65;3.58;;;;;;;;;;5041104;28;20041;-82
2022/06/03 20:49:11;;;;;;;4.13;3.25;;;;;;;;;;5019580;28;20049;-82
2022/06/03 20:52:11;;;;;;;6.93;3.83;;;;;;;;;;5034521;28;20049;-82
2022/06/03 20:55:18;;;;;;;4.43;3.50;;;;;;;;;;5040788;28;20046;-83
2022/06/03 20:58:29;;;;;;;4.18;3.38;;;;;;;;;;5032763;28;20391;-82
2022/06/03 21:02:02;;;;;;;5.72;3.42;;;;;;;;;;5039710;28;20046;-87
2022/06/03 21:14:36;;;;;;;5.97;3.40;;;;;;;;;;5033743;28;20045;-85